Terminal Aerodrome Forecast
Issued by NWS Pocatello, ID

Home | Current Version | Previous Version | Text Only | Print | Product List | Glossary On
Versions: 1 2 3 4 5 6 7 8 9 10 11 12
622
FTUS45 KPIH 232328
TAFBYI
TAF
KBYI 232328Z 2400/2424 28011KT P6SM SCT080
     FM240300 24010KT P6SM VCSH SCT040 OVC060
     FM241200 VRB06KT 6SM -RA BR OVC020
     FM241900 27014G24KT P6SM -SHRA SCT020 OVC040=

USA.gov is the U.S. government's official web portal to all federal, state and local government web resources and services.